Watrous, Canada
Current Conditions -  °F | °C
As of 7:00 PM on Saturday 25 Oct 2014 (Local Time) from CYXE Reporting Station
Broken Clouds Broken Clouds  
Wind Chill: 33°   Ceiling: 10000
Heat Index: 39°   Visibility: 15mi
Dew Point: 27°   Wind: 9mph
Humidity: 61%   Direction: 90°E
Pressure: 29.88"   Gusts: NA
Location:  51.67°N, 105.45°W
Report Text: CYXE 260100Z 09008KT 15SM BKN100 04/M03 A2988 RMK AC5 SLP144
Loading
Personal Weather Stations






























Interactive Weather Map
Tropical Storm Tracking
New forecast layout! Learn more

10-Day Weather Forecast

Advertisements
Track Severe Weather on mobile